オスロ の空港の天気 - METARとTAF

オスロ空港 ( ENGM / OSL ) - ノルウェー アーケシュフース県オスロ
飛行場実況気象(Metar)
観測時間05/28 11:50 CEST (05/28 09:50 UTC)
風向・風速北北西 9m/s 瞬間風速14m/s
視程10km以上
天気現象
なし
気温14℃
湿度41%
気圧1005hPa
METARENGM 280950Z 34018G28KT 300V010 CAVOK 14/01 Q1005
過去の天気等 Google飛行場航空写真 Wunderground天気予報

過去48時間のMETAR

飛行場予報(TAF)
発表時間: -
28日11時 CEST ~ 28日18時 CEST に一時的に
風向・風速北 9m/s 瞬間風速 14m/s
28日20時 CEST ~ 28日22時 CEST に徐々に
風向・風速北北西 3m/s
TAF ENGM 2806/2906 34015KT CAVOK
TEMPO 2809/2816 35018G28KT
BECMG 2818/2820 34005KT